Latest Weather Observations for Maningrida Airport

IDD60801

Issued at 7:05 pm CST Sunday 23 November 2014 (issued every 30 minutes, with the page automatically refreshed every 10 minutes)

About weather observations | Map of weather stations | Latest weather observations for NT | Other Formats
Station Details ID: 014405 Name: MANINGRIDA AIRPORT Lat: -12.06 Lon: 134.23 Height: 28.1 m
Data from the previous 72 hours. | See also: Recent months at Maningrida Airport
Date/Time
CST
Temp
°C
App
Temp
°C
Dew
Point
Rel
Hum
%
Delta-T
°C
Wind Press
QNH
hPa
Press
MSL
hPa
Rain
since 9 am
mm
Dir
 
Spd
km/h
Gust
km/h
Spd
kts
Gust
kts
23/07:00pm 28.8 31.2 23.7 74 3.5 NNE 17 24 9 13 1008.0 1007.8 0.0
23/06:30pm 29.2 31.1 23.4 71 4.0 NNE 19 26 10 14 1007.9 1007.7 0.0
23/06:00pm 29.7 31.4 23.4 69 4.3 NNE 20 30 11 16 1008.1 1007.9 0.0
23/05:30pm 30.0 31.7 23.4 67 4.6 NNE 20 30 11 16 1008.1 1007.9 0.0
23/05:00pm 30.5 32.4 23.7 67 4.7 NNE 20 33 11 18 1007.8 1007.6 0.0
23/04:30pm 30.8 31.6 23.2 64 5.2 NNE 24 32 13 17 1007.8 1007.6 0.0
23/04:00pm 31.6 32.5 22.6 59 6.2 NNE 22 30 12 16 1008.1 1007.9 0.0
23/03:30pm 31.8 32.6 22.5 58 6.4 NNE 22 33 12 18 1008.3 1008.1 0.0
23/03:00pm 32.4 32.8 22.5 56 6.8 NNE 24 33 13 18 1008.4 1008.2 0.0
23/02:30pm 32.6 33.4 21.8 53 7.3 NE 20 24 11 13 1008.9 1008.7 0.0
23/02:00pm 32.9 33.4 21.1 50 7.9 NE 20 32 11 17 1009.3 1009.1 0.0
23/01:30pm 33.0 32.4 20.5 47 8.4 NE 24 32 13 17 1009.8 1009.6 0.0
23/01:00pm 33.7 33.5 19.7 43 9.3 NE 20 35 11 19 1009.9 1009.7 0.0
23/12:30pm 34.1 32.6 17.8 38 10.5 NE 22 32 12 17 1010.1 1009.9 0.0
23/12:00pm 34.8 34.2 18.8 39 10.5 NE 20 30 11 16 1010.6 1010.4 0.0
23/11:30am 34.3 34.0 18.3 38 10.4 ENE 17 28 9 15 1011.3 1011.0 0.0
23/11:00am 33.8 32.6 17.1 37 10.7 E 19 26 10 14 1011.5 1011.2 0.0
23/10:30am 33.1 33.7 20.3 47 8.5 NNE 17 28 9 15 1011.6 1011.3 0.0
23/10:00am 31.9 34.6 23.4 60 5.9 N 15 20 8 11 1011.7 1011.4 0.0
23/09:30am 32.6 35.0 21.5 52 7.5 E 11 19 6 10 1011.9 1011.6 0.0
23/09:00am 31.6 36.0 24.5 66 5.0 NNE 9 13 5 7 1011.9 1011.6 0.0
23/08:30am 30.2 34.7 23.9 69 4.4 NNE 7 11 4 6 1011.9 1011.6 0.0
23/08:00am 30.0 34.9 24.4 72 3.9 SSE 6 9 3 5 1011.6 1011.3 0.0
23/07:30am 28.4 33.3 24.4 79 2.8 SSW 6 7 3 4 1011.5 1011.2 0.0
23/07:00am 27.0 31.9 24.6 87 1.7 SW 7 9 4 5 1011.1 1010.9 0.0
23/06:30am 25.5 31.6 24.5 94 0.7 CALM 0 0 0 0 1010.8 1010.6 0.0
23/06:00am 25.7 32.0 24.7 94 0.7 CALM 0 0 0 0 1010.4 1010.2 0.0
23/05:30am 25.8 32.1 24.8 94 0.7 CALM 0 0 0 0 1010.3 1010.1 0.0
23/05:00am 26.0 31.4 25.1 95 0.6 SSE 6 6 3 3 1010.1 1009.9 0.0
23/04:30am 25.3 31.3 24.8 97 0.3 SSE 2 11 1 6 1010.0 1009.8 0.0
23/04:00am 25.4 31.7 24.7 96 0.5 CALM 0 0 0 0 1009.9 1009.7 0.0
23/03:30am 25.6 31.9 24.7 95 0.6 CALM 0 0 0 0 1009.7 1009.5 0.0
23/03:00am 25.7 32.0 24.7 94 0.7 CALM 0 0 0 0 1009.8 1009.6 0.0
23/02:30am 25.7 30.7 24.5 93 0.8 SSE 6 6 3 3 1009.8 1009.6 0.0
23/02:00am 26.1 31.2 24.7 92 1.0 SE 6 7 3 4 1009.8 1009.6 0.0
23/01:30am 26.3 31.6 24.3 89 1.4 SE 4 6 2 3 1010.0 1009.8 0.0
23/01:00am 26.7 32.5 24.5 88 1.5 SE 2 6 1 3 1010.3 1010.1 0.0
23/12:30am 26.9 31.7 24.5 87 1.7 ESE 7 7 4 4 1010.6 1010.4 0.0
23/12:00am 27.3 33.6 24.7 86 1.8 CALM 0 0 0 0 1010.6 1010.4 0.0
 
Date/Time
CST
Temp
°C
App
Temp
°C
Dew
Point
Rel
Hum
%
Delta-T
°C
Wind Press
QNH
hPa
Press
MSL
hPa
Rain
since 9 am
mm
Dir
 
Spd
km/h
Gust
km/h
Spd
kts
Gust
kts
22/11:30pm 27.5 32.5 24.5 84 2.1 ESE 6 7 3 4 1010.7 1010.5 0.0
22/11:00pm 28.0 33.1 24.6 82 2.4 ENE 6 9 3 5 1010.6 1010.4 0.0
22/10:30pm 28.3 33.4 24.9 82 2.4 NE 7 9 4 5 1010.5 1010.3 0.0
22/10:00pm 28.6 33.2 24.8 80 2.7 NNE 9 11 5 6 1010.3 1010.1 0.0
22/09:30pm 28.8 33.4 24.8 79 2.8 NNE 9 15 5 8 1010.3 1010.1 0.0
22/09:00pm 29.0 33.4 25.0 79 2.8 NNE 11 17 6 9 1010.0 1009.8 0.0
22/08:30pm 29.2 32.6 24.7 77 3.1 NNE 15 22 8 12 1009.9 1009.7 0.0
22/08:00pm 29.3 32.7 24.6 76 3.3 N 15 20 8 11 1009.7 1009.5 0.0
22/07:30pm 29.3 32.2 24.4 75 3.4 NNE 17 22 9 12 1009.3 1009.1 0.0
22/07:00pm 29.4 32.7 24.5 75 3.4 NNE 15 20 8 11 1008.8 1008.6 0.0
22/06:30pm 29.7 32.7 24.6 74 3.6 NNE 17 24 9 13 1008.7 1008.5 0.0
22/06:00pm 30.4 32.9 24.5 70 4.1 NNE 19 26 10 14 1008.5 1008.3 0.0
22/05:30pm 31.5 33.6 24.1 65 5.2 N 20 30 11 16 1008.5 1008.3 0.0
22/05:00pm 31.7 33.6 23.5 62 5.7 NNE 19 30 10 16 1008.4 1008.2 0.0
22/04:30pm 31.8 33.3 23.1 60 6.0 NE 20 26 11 14 1008.4 1008.2 0.0
22/04:00pm 33.1 34.8 23.4 56 6.7 NNE 20 28 11 15 1008.3 1008.1 0.0
22/03:30pm 32.4 33.9 23.1 58 6.4 NNE 20 30 11 16 1008.6 1008.4 0.0
22/03:00pm 32.3 33.9 23.3 59 6.2 NNE 20 30 11 16 1008.8 1008.6 0.0
22/02:30pm 32.7 33.8 23.1 57 6.6 NNE 22 30 12 16 1009.2 1009.0 0.0
22/02:00pm 33.4 35.3 23.7 56 6.8 N 20 30 11 16 1009.5 1009.3 0.0
22/01:30pm 33.4 34.4 22.8 53 7.3 NNE 22 32 12 17 1010.0 1009.8 0.0
22/01:00pm 34.6 36.8 24.2 54 7.3 NNE 20 30 11 16 1010.3 1010.1 0.0
22/12:30pm 33.1 34.4 23.4 56 6.7 N 22 30 12 16 1010.6 1010.4 0.0
22/12:00pm 32.9 34.7 23.2 56 6.7 NNE 19 26 10 14 1010.9 1010.7 0.0
22/11:30am 32.8 34.1 22.3 54 7.2 NE 19 32 10 17 1011.4 1011.1 0.0
22/11:00am 32.7 33.4 21.5 51 7.6 NE 20 26 11 14 1011.6 1011.3 0.0
22/10:30am 32.1 33.1 21.0 52 7.5 ENE 17 28 9 15 1011.8 1011.5 0.0
22/10:00am 32.5 34.0 22.0 54 7.1 E 17 26 9 14 1011.9 1011.6 0.0
22/09:30am 32.3 34.2 22.1 55 7.0 E 15 20 8 11 1012.0 1011.7 0.0
22/09:00am 32.0 34.6 22.7 58 6.4 E 13 20 7 11 1012.0 1011.7 0.0
22/08:30am 30.6 34.5 22.5 62 5.5 N 6 13 3 7 1011.6 1011.3 0.0
22/08:00am 29.9 34.2 23.6 69 4.4 ESE 7 11 4 6 1011.5 1011.2 0.0
22/07:30am 28.8 33.5 23.9 75 3.4 SSE 6 7 3 4 1011.1 1010.9 0.0
22/07:00am 27.3 32.1 24.2 83 2.1 S 6 9 3 5 1010.9 1010.7 0.0
22/06:30am 26.1 31.2 24.7 92 1.0 SSW 6 9 3 5 1010.6 1010.4 0.0
22/06:00am 25.9 30.6 24.3 91 1.1 SSW 7 9 4 5 1010.2 1010.0 0.0
22/05:30am 27.1 32.9 24.0 83 2.1 CALM 0 0 0 0 1010.1 1009.9 0.0
22/05:00am 27.8 32.5 24.0 80 2.6 NE 6 9 3 5 1009.7 1009.5 0.0
22/04:30am 28.1 31.9 24.1 79 2.8 NE 11 17 6 9 1009.4 1009.2 0.0
22/04:00am 28.2 32.6 24.4 80 2.6 NNE 9 13 5 7 1009.3 1009.1 0.0
22/03:30am 28.1 31.8 24.5 81 2.5 NE 13 17 7 9 1009.1 1008.9 0.0
22/03:00am 28.1 32.2 24.5 81 2.5 NE 11 15 6 8 1009.0 1008.8 0.0
22/02:30am 28.4 32.5 24.6 80 2.7 NNE 11 15 6 8 1009.1 1008.9 0.0
22/02:00am 28.1 32.4 24.3 80 2.6 NNE 9 13 5 7 1009.2 1009.0 0.0
22/01:30am 28.0 31.9 24.2 80 2.6 NE 11 17 6 9 1009.5 1009.3 0.0
22/01:00am 27.9 32.6 24.3 81 2.5 NE 7 11 4 6 1009.8 1009.6 0.0
22/12:30am 27.6 32.9 24.4 83 2.2 NE 4 7 2 4 1009.9 1009.7 0.0
22/12:00am 27.4 32.5 24.0 82 2.3 E 4 6 2 3 1010.1 1009.9 0.0
 
Date/Time
CST
Temp
°C
App
Temp
°C
Dew
Point
Rel
Hum
%
Delta-T
°C
Wind Press
QNH
hPa
Press
MSL
hPa
Rain
since 9 am
mm
Dir
 
Spd
km/h
Gust
km/h
Spd
kts
Gust
kts
21/11:30pm 27.1 31.6 23.6 81 2.4 E 6 6 3 3 1010.1 1009.9 0.0
21/11:00pm 27.7 32.4 23.9 80 2.6 ENE 6 7 3 4 1010.0 1009.8 0.0
21/10:30pm 27.9 32.6 23.9 79 2.8 NE 6 7 3 4 1009.9 1009.7 0.0
21/10:00pm 28.1 32.6 23.9 78 2.9 NE 7 11 4 6 1009.6 1009.4 0.0
21/09:30pm 28.3 32.8 23.9 77 3.0 NE 7 9 4 5 1009.6 1009.4 0.0
21/09:00pm 28.5 32.6 23.9 76 3.2 NNE 9 13 5 7 1009.2 1009.0 0.0
21/08:30pm 28.7 32.8 24.0 76 3.3 NNE 9 13 5 7 1009.1 1008.9 0.0
21/08:00pm 29.0 32.7 23.9 74 3.5 N 11 17 6 9 1008.9 1008.7 0.0
21/07:30pm 28.9 32.2 23.8 74 3.5 N 13 17 7 9 1008.6 1008.4 0.0
21/07:00pm 29.1 32.1 24.0 74 3.5 N 15 20 8 11 1008.6 1008.4 0.0
21/06:30pm 29.3 31.7 23.7 72 3.9 N 17 22 9 12 1008.3 1008.1 0.0
21/06:00pm 29.8 32.1 23.5 69 4.4 N 17 22 9 12 1008.4 1008.2 0.0
21/05:30pm 30.3 32.7 23.7 68 4.6 N 17 22 9 12 1008.6 1008.4 0.0
21/05:00pm 30.8 33.2 23.7 66 4.9 N 17 24 9 13 1008.5 1008.3 0.0
21/04:30pm 31.4 33.2 23.2 61 5.7 N 19 24 10 13 1008.5 1008.3 0.0
21/04:00pm 32.0 33.7 23.0 59 6.2 N 19 24 10 13 1008.5 1008.3 0.0
21/03:30pm 31.6 32.9 22.6 59 6.2 N 20 26 11 14 1008.7 1008.5 0.0
21/03:00pm 32.8 34.5 23.4 57 6.5 N 20 32 11 17 1009.0 1008.8 0.0
21/02:30pm 32.4 33.7 23.3 58 6.3 N 22 30 12 16 1009.0 1008.8 0.0
21/02:00pm 32.4 33.6 22.5 56 6.8 NNE 20 30 11 16 1009.3 1009.1 0.0
21/01:30pm 32.3 33.4 23.0 58 6.4 NE 22 32 12 17 1009.5 1009.3 0.0
21/01:00pm 32.9 34.4 23.0 56 6.8 NE 20 32 11 17 1010.0 1009.8 0.0
21/12:30pm 33.3 35.4 22.4 52 7.5 NE 15 20 8 11 1010.5 1010.3 0.0
21/12:00pm 32.3 34.0 22.4 56 6.8 NE 17 28 9 15 1011.0 1010.8 0.0
21/11:30am 31.7 33.0 22.4 58 6.4 NE 19 26 10 14 1011.5 1011.2 0.0
21/11:00am 31.7 32.6 22.7 59 6.2 NNE 22 28 12 15 1011.7 1011.4 0.0
21/10:30am 31.4 32.0 21.3 55 6.8 NE 20 24 11 13 1012.0 1011.7 0.0
21/10:00am 32.3 34.0 22.4 56 6.8 N 17 20 9 11 1012.0 1011.7 0.0
21/09:30am 31.5 33.2 21.7 56 6.6 NE 15 26 8 14 1012.1 1011.8 0.0
21/09:00am 30.7 32.9 22.6 62 5.5 NE 15 20 8 11 1012.1 1011.8 0.0
21/08:30am 29.9 33.4 23.6 69 4.4 NNE 11 17 6 9 1011.8 1011.5 0.0
21/08:00am 29.8 33.8 23.7 70 4.2 ENE 9 13 5 7 1011.7 1011.4 0.0
21/07:30am 28.8 33.3 23.9 75 3.4 SE 7 11 4 6 1011.6 1011.3 0.0
21/07:00am 27.8 33.6 24.6 83 2.2 S 2 7 1 4 1010.9 1010.7 0.0
21/06:30am 25.9 31.2 25.0 95 0.6 S 6 7 3 4 1010.4 1010.2 0.0
21/06:00am 25.5 30.8 25.0 97 0.3 S 6 7 3 4 1009.9 1009.7 0.0
21/05:30am 25.4 31.5 24.5 95 0.6 CALM 0 0 0 0 1009.5 1009.3 0.0
21/05:00am 25.7 31.0 25.0 96 0.5 S 6 9 3 5 1009.1 1008.9 0.0
21/04:30am 26.0 31.0 24.8 93 0.8 SSW 7 11 4 6 1009.0 1008.8 0.0
21/04:00am 26.4 32.4 24.2 88 1.5 CALM 0 0 0 0 1008.6 1008.4 0.0
21/03:30am 27.8 33.4 24.2 81 2.5 ENE 2 6 1 3 1008.6 1008.4 0.0
21/03:00am 28.0 33.3 24.4 81 2.5 E 4 7 2 4 1008.7 1008.5 0.0
21/02:30am 28.2 33.1 24.6 81 2.5 ENE 7 11 4 6 1009.0 1008.8 0.0
21/02:00am 28.5 32.4 24.9 81 2.5 ENE 13 20 7 11 1009.3 1009.1 0.0
21/01:30am 28.3 33.0 24.9 82 2.4 ENE 9 13 5 7 1009.7 1009.5 0.0
21/01:00am 28.1 33.0 24.7 82 2.4 E 7 9 4 5 1009.9 1009.7 0.0
21/12:30am 28.4 33.0 24.8 81 2.5 NE 9 15 5 8 1010.1 1009.9 0.0
21/12:00am 28.4 32.3 24.8 81 2.5 ENE 13 19 7 10 1010.2 1010.0 0.0
 
Date/Time
CST
Temp
°C
App
Temp
°C
Dew
Point
Rel
Hum
%
Delta-T
°C
Wind Press
QNH
hPa
Press
MSL
hPa
Rain
since 9 am
mm
Dir
 
Spd
km/h
Gust
km/h
Spd
kts
Gust
kts
20/11:30pm 28.4 32.6 24.8 81 2.5 ENE 11 17 6 9 1010.6 1010.4 0.0
20/11:00pm 28.3 32.9 24.7 81 2.5 ENE 9 13 5 7 1010.6 1010.4 0.0
20/10:30pm 28.4 33.0 24.8 81 2.5 ENE 9 13 5 7 1010.4 1010.2 0.0
20/10:00pm 28.6 32.5 24.8 80 2.7 NNE 13 19 7 10 1010.2 1010.0 0.0
20/09:30pm 28.8 32.9 24.6 78 2.9 NE 11 17 6 9 1010.2 1010.0 0.0
20/09:00pm 28.9 32.3 24.0 75 3.4 NE 13 19 7 10 1010.0 1009.8 0.0
20/08:30pm 29.0 32.4 24.1 75 3.4 NE 13 19 7 10 1009.7 1009.5 0.0
20/08:00pm 29.2 32.5 23.9 73 3.7 NNE 13 17 7 9 1009.3 1009.1 0.0
20/07:30pm 29.3 32.5 23.7 72 3.9 NNE 13 19 7 10 1009.0 1008.8 0.0

Other Formats:

Comma delimited format used in spreadsheet applications
http://www.bom.gov.au/fwo/IDD60801/IDD60801.95142.axf

JavaScript Object Notation format (JSON) in row-major order
http://www.bom.gov.au/fwo/IDD60801/IDD60801.95142.json